createdAt,value
2018-06-02T00:07:58.053Z,49.5
2018-06-02T00:17:57.225Z,49.6
2018-06-02T00:27:56.496Z,49.6
2018-06-02T00:37:55.671Z,49.1
2018-06-02T00:47:54.924Z,49.1
2018-06-02T00:57:54.114Z,49.1
2018-06-02T01:07:53.340Z,49.2
2018-06-02T01:17:52.566Z,49.2
2018-06-02T01:27:51.833Z,49.2
2018-06-02T01:37:51.017Z,49.3
2018-06-02T01:47:50.239Z,49.3
2018-06-02T01:57:49.445Z,49.3
2018-06-02T02:07:48.673Z,49.3
2018-06-02T02:17:47.906Z,49.3
2018-06-02T02:27:47.124Z,49.3
2018-06-02T02:37:46.340Z,49.4
2018-06-02T02:47:45.565Z,49.4
2018-06-02T02:57:44.785Z,49.4
2018-06-02T03:07:44.015Z,49.4
2018-06-02T03:17:43.240Z,49.4
2018-06-02T03:27:42.448Z,49.4
2018-06-02T03:37:41.672Z,49.4
2018-06-02T03:47:40.891Z,49.4
2018-06-02T03:57:40.113Z,49.4
2018-06-02T04:07:39.340Z,49.4
2018-06-02T04:17:38.565Z,49.4
2018-06-02T04:27:37.779Z,49.5
2018-06-02T04:37:37.010Z,49.5
2018-06-02T04:47:36.233Z,49.5
2018-06-02T04:57:35.440Z,49.6
2018-06-02T05:07:34.660Z,45.8
2018-06-02T05:17:33.880Z,44.6
2018-06-02T05:27:33.160Z,44.5
2018-06-02T05:37:32.331Z,44.4
2018-06-02T05:47:31.557Z,43.8
2018-06-02T05:57:30.886Z,43.8
2018-06-02T06:07:29.997Z,44.1
2018-06-02T06:17:29.221Z,44.3
2018-06-02T06:27:28.442Z,44.5
2018-06-02T06:37:27.669Z,44.8
2018-06-02T06:47:26.894Z,45.4
2018-06-02T06:57:26.114Z,46.4
2018-06-02T07:07:25.342Z,46.2
2018-06-02T07:17:24.573Z,47.3
2018-06-02T07:27:23.798Z,48.4
2018-06-02T07:37:23.024Z,49.3
2018-06-02T07:47:22.248Z,50.3
2018-06-02T07:57:21.478Z,51.1
2018-06-02T08:07:20.731Z,51.9
2018-06-02T08:17:19.925Z,52.8
2018-06-02T08:27:19.157Z,53.6
2018-06-02T08:37:18.377Z,54.6
2018-06-02T08:47:17.611Z,55.6
2018-06-02T08:57:16.884Z,56.4
2018-06-02T09:07:16.051Z,57.1
2018-06-02T09:17:15.287Z,57.8
2018-06-02T09:27:14.509Z,58.5
2018-06-02T09:37:13.733Z,59.1
2018-06-02T09:47:12.966Z,59.7
2018-06-02T09:57:12.190Z,60
2018-06-02T10:07:11.412Z,60.4
2018-06-02T10:17:10.648Z,60.9
2018-06-02T10:27:09.867Z,61.4
2018-06-02T10:37:09.103Z,61.6
2018-06-02T10:47:08.376Z,61.9
2018-06-02T10:57:07.545Z,62.4
2018-06-02T11:07:06.772Z,62.8
2018-06-02T11:17:06.001Z,63.5
2018-06-02T11:27:05.280Z,63.8
2018-06-02T11:37:04.461Z,64.3
2018-06-02T11:47:03.676Z,64.9
2018-06-02T11:57:02.955Z,65.5
2018-06-02T12:07:02.136Z,66.1
2018-06-02T12:17:01.354Z,66.7
2018-06-02T12:27:00.587Z,67
2018-06-02T12:36:59.806Z,67.4
2018-06-02T12:46:59.028Z,67.9
2018-06-02T12:56:58.254Z,68.5
2018-06-02T13:06:57.482Z,68.9
2018-06-02T13:16:56.706Z,69.4
2018-06-02T13:26:55.932Z,69.9
2018-06-02T13:36:55.167Z,70
2018-06-02T13:46:54.399Z,69.9
2018-06-02T13:56:53.623Z,69.7
2018-06-02T14:06:52.849Z,69.3
2018-06-02T14:16:52.073Z,68.9
2018-06-02T14:26:51.319Z,68.3
2018-06-02T14:36:50.600Z,67.6
2018-06-02T14:46:49.768Z,66.7
2018-06-02T14:56:48.992Z,65.2
2018-06-02T15:06:48.227Z,63.8
2018-06-02T15:16:47.451Z,63
2018-06-02T15:26:46.676Z,61.9
2018-06-02T15:36:45.958Z,59.2
2018-06-02T15:46:45.140Z,58.6
2018-06-02T15:56:44.370Z,57.3
2018-06-02T16:06:43.593Z,53.6
2018-06-02T16:16:42.825Z,53.8
2018-06-02T16:26:42.053Z,53.7
2018-06-02T16:36:41.282Z,53.6
2018-06-02T16:46:40.513Z,53.4
2018-06-02T16:56:39.736Z,52.8
2018-06-02T17:06:38.960Z,51.2
2018-06-02T17:16:38.190Z,50.6
2018-06-02T17:26:37.423Z,50.7
2018-06-02T17:36:36.651Z,49.4
2018-06-02T17:46:35.972Z,49.1
2018-06-02T17:56:35.104Z,49.4
2018-06-02T18:06:34.327Z,48.6
2018-06-02T18:16:33.565Z,48.7
2018-06-02T18:26:32.784Z,46.3
2018-06-02T18:36:32.022Z,44.3
2018-06-02T18:46:31.240Z,36.9
2018-06-02T18:56:30.468Z,33.6
2018-06-02T19:06:29.758Z,25.4
2018-06-02T19:16:28.987Z,25.5
2018-06-02T19:26:28.163Z,26
2018-06-02T19:36:27.402Z,22.3
2018-06-02T19:46:26.619Z,22.6
2018-06-02T19:56:25.863Z,22.9
2018-06-02T20:06:25.076Z,23.2
2018-06-02T20:16:24.317Z,23.5
2018-06-02T20:26:23.592Z,23.8
2018-06-02T20:36:22.771Z,24.1
2018-06-02T20:46:22.000Z,24.3
2018-06-02T20:56:21.215Z,24.5
2018-06-02T21:06:20.447Z,24.8
2018-06-02T21:16:19.724Z,24.9
2018-06-02T21:26:18.906Z,25.2
2018-06-02T21:36:18.130Z,25.4
2018-06-02T21:46:17.423Z,25.6
2018-06-02T21:56:16.633Z,25.8
2018-06-02T22:06:15.820Z,25.9
2018-06-02T22:16:15.042Z,26.1
2018-06-02T22:26:14.269Z,26.3
2018-06-02T22:36:13.613Z,26.4
2018-06-02T22:46:12.732Z,26.6
2018-06-02T22:56:11.951Z,26.8
2018-06-02T23:06:11.185Z,26.9
2018-06-02T23:16:10.415Z,27
2018-06-02T23:26:09.633Z,27.1
2018-06-02T23:36:08.861Z,27.3
2018-06-02T23:46:08.093Z,27.4
2018-06-02T23:56:07.313Z,27.5
